sensor_id;sensor_type;location;lat;lon;timestamp;P1;durP1;ratioP1;P2;durP2;ratioP2
36629;SDS011;36256;42.154;23.002;2023-08-06T00:00:58;10.25;;;6.78;;
36629;SDS011;36256;42.154;23.002;2023-08-06T00:03:25;8.10;;;6.07;;
36629;SDS011;36256;42.154;23.002;2023-08-06T00:05:52;10.55;;;6.97;;
36629;SDS011;36256;42.154;23.002;2023-08-06T00:08:19;9.57;;;6.68;;
36629;SDS011;36256;42.154;23.002;2023-08-06T00:10:47;7.55;;;6.78;;
36629;SDS011;36256;42.154;23.002;2023-08-06T00:13:14;8.30;;;6.43;;
36629;SDS011;36256;42.154;23.002;2023-08-06T00:15:41;8.40;;;6.68;;
36629;SDS011;36256;42.154;23.002;2023-08-06T00:18:08;9.70;;;6.75;;
36629;SDS011;36256;42.154;23.002;2023-08-06T00:20:34;10.80;;;6.78;;
36629;SDS011;36256;42.154;23.002;2023-08-06T00:23:01;8.68;;;6.57;;
36629;SDS011;36256;42.154;23.002;2023-08-06T00:25:28;10.55;;;7.03;;
36629;SDS011;36256;42.154;23.002;2023-08-06T00:27:55;8.25;;;6.75;;
36629;SDS011;36256;42.154;23.002;2023-08-06T00:30:22;14.45;;;7.22;;
36629;SDS011;36256;42.154;23.002;2023-08-06T00:32:49;12.00;;;7.30;;
36629;SDS011;36256;42.154;23.002;2023-08-06T00:35:16;9.10;;;7.15;;
36629;SDS011;36256;42.154;23.002;2023-08-06T00:37:43;9.07;;;7.15;;
36629;SDS011;36256;42.154;23.002;2023-08-06T00:40:09;9.70;;;6.82;;
36629;SDS011;36256;42.154;23.002;2023-08-06T00:42:36;11.18;;;7.28;;
36629;SDS011;36256;42.154;23.002;2023-08-06T00:45:03;10.18;;;7.82;;
36629;SDS011;36256;42.154;23.002;2023-08-06T00:47:30;13.85;;;8.32;;
36629;SDS011;36256;42.154;23.002;2023-08-06T00:52:23;9.93;;;8.02;;
36629;SDS011;36256;42.154;23.002;2023-08-06T00:54:50;13.90;;;8.02;;
36629;SDS011;36256;42.154;23.002;2023-08-06T00:57:17;12.32;;;7.32;;
36629;SDS011;36256;42.154;23.002;2023-08-06T01:02:11;12.00;;;7.43;;
36629;SDS011;36256;42.154;23.002;2023-08-06T01:04:38;16.35;;;8.20;;
36629;SDS011;36256;42.154;23.002;2023-08-06T01:15:10;12.50;;;8.43;;
36629;SDS011;36256;42.154;23.002;2023-08-06T01:17:41;12.00;;;9.45;;
36629;SDS011;36256;42.154;23.002;2023-08-06T01:20:10;11.10;;;8.75;;
36629;SDS011;36256;42.154;23.002;2023-08-06T01:22:37;13.40;;;9.52;;
36629;SDS011;36256;42.154;23.002;2023-08-06T01:25:03;11.43;;;9.13;;
36629;SDS011;36256;42.154;23.002;2023-08-06T01:28:06;14.77;;;9.48;;
36629;SDS011;36256;42.154;23.002;2023-08-06T01:30:29;13.02;;;9.07;;
36629;SDS011;36256;42.154;23.002;2023-08-06T01:33:03;12.15;;;8.30;;
36629;SDS011;36256;42.154;23.002;2023-08-06T01:35:32;11.77;;;8.70;;
36629;SDS011;36256;42.154;23.002;2023-08-06T01:38:01;11.90;;;8.50;;
36629;SDS011;36256;42.154;23.002;2023-08-06T01:40:29;10.32;;;8.57;;
36629;SDS011;36256;42.154;23.002;2023-08-06T01:42:56;10.55;;;8.10;;
36629;SDS011;36256;42.154;23.002;2023-08-06T01:45:23;12.98;;;8.50;;
36629;SDS011;36256;42.154;23.002;2023-08-06T01:47:49;9.05;;;7.80;;
36629;SDS011;36256;42.154;23.002;2023-08-06T01:50:16;10.00;;;7.63;;
36629;SDS011;36256;42.154;23.002;2023-08-06T01:52:43;10.18;;;7.60;;
36629;SDS011;36256;42.154;23.002;2023-08-06T01:55:10;10.02;;;7.25;;
36629;SDS011;36256;42.154;23.002;2023-08-06T01:57:37;8.45;;;7.22;;
36629;SDS011;36256;42.154;23.002;2023-08-06T02:00:04;9.50;;;7.43;;
36629;SDS011;36256;42.154;23.002;2023-08-06T02:02:31;8.13;;;7.32;;
36629;SDS011;36256;42.154;23.002;2023-08-06T02:04:58;8.48;;;7.57;;
36629;SDS011;36256;42.154;23.002;2023-08-06T02:07:25;9.75;;;7.60;;
36629;SDS011;36256;42.154;23.002;2023-08-06T02:09:51;7.30;;;6.60;;
36629;SDS011;36256;42.154;23.002;2023-08-06T02:12:18;9.20;;;6.68;;
36629;SDS011;36256;42.154;23.002;2023-08-06T02:14:45;9.25;;;6.45;;
36629;SDS011;36256;42.154;23.002;2023-08-06T02:17:11;8.07;;;6.78;;
36629;SDS011;36256;42.154;23.002;2023-08-06T02:19:38;9.93;;;6.70;;
36629;SDS011;36256;42.154;23.002;2023-08-06T02:22:05;10.52;;;7.20;;
36629;SDS011;36256;42.154;23.002;2023-08-06T02:24:32;9.88;;;6.90;;
36629;SDS011;36256;42.154;23.002;2023-08-06T02:26:58;7.70;;;6.90;;
36629;SDS011;36256;42.154;23.002;2023-08-06T02:29:25;9.45;;;6.95;;
36629;SDS011;36256;42.154;23.002;2023-08-06T02:31:52;11.55;;;6.80;;
36629;SDS011;36256;42.154;23.002;2023-08-06T02:34:19;9.18;;;6.47;;
36629;SDS011;36256;42.154;23.002;2023-08-06T02:36:45;12.93;;;7.18;;
36629;SDS011;36256;42.154;23.002;2023-08-06T02:39:12;10.45;;;7.78;;
36629;SDS011;36256;42.154;23.002;2023-08-06T02:41:39;10.27;;;8.02;;
36629;SDS011;36256;42.154;23.002;2023-08-06T02:44:06;14.52;;;8.15;;
36629;SDS011;36256;42.154;23.002;2023-08-06T02:46:32;11.40;;;8.25;;
36629;SDS011;36256;42.154;23.002;2023-08-06T02:48:59;14.05;;;8.55;;
36629;SDS011;36256;42.154;23.002;2023-08-06T02:51:26;14.80;;;8.48;;
36629;SDS011;36256;42.154;23.002;2023-08-06T02:53:52;14.63;;;8.88;;
36629;SDS011;36256;42.154;23.002;2023-08-06T02:56:19;10.73;;;7.70;;
36629;SDS011;36256;42.154;23.002;2023-08-06T02:58:46;12.77;;;8.80;;
36629;SDS011;36256;42.154;23.002;2023-08-06T03:01:12;9.82;;;8.05;;
36629;SDS011;36256;42.154;23.002;2023-08-06T03:03:40;12.43;;;8.25;;
36629;SDS011;36256;42.154;23.002;2023-08-06T03:06:07;13.15;;;8.93;;
36629;SDS011;36256;42.154;23.002;2023-08-06T03:08:33;10.40;;;8.70;;
36629;SDS011;36256;42.154;23.002;2023-08-06T03:11:00;12.27;;;8.88;;
36629;SDS011;36256;42.154;23.002;2023-08-06T03:13:27;12.65;;;8.63;;
36629;SDS011;36256;42.154;23.002;2023-08-06T03:18:22;13.63;;;8.88;;
36629;SDS011;36256;42.154;23.002;2023-08-06T03:20:49;15.48;;;9.00;;
36629;SDS011;36256;42.154;23.002;2023-08-06T03:23:15;14.18;;;9.15;;
36629;SDS011;36256;42.154;23.002;2023-08-06T03:25:42;17.73;;;8.40;;
36629;SDS011;36256;42.154;23.002;2023-08-06T03:30:36;11.43;;;9.13;;
36629;SDS011;36256;42.154;23.002;2023-08-06T03:33:03;12.95;;;8.25;;
36629;SDS011;36256;42.154;23.002;2023-08-06T03:35:30;12.65;;;8.63;;
36629;SDS011;36256;42.154;23.002;2023-08-06T03:37:57;16.63;;;10.10;;
36629;SDS011;36256;42.154;23.002;2023-08-06T03:40:23;14.85;;;9.65;;
36629;SDS011;36256;42.154;23.002;2023-08-06T03:42:50;10.55;;;9.23;;
36629;SDS011;36256;42.154;23.002;2023-08-06T03:45:17;14.32;;;9.70;;
36629;SDS011;36256;42.154;23.002;2023-08-06T03:47:44;14.43;;;10.05;;
36629;SDS011;36256;42.154;23.002;2023-08-06T03:50:11;14.98;;;9.70;;
36629;SDS011;36256;42.154;23.002;2023-08-06T03:52:37;13.93;;;9.30;;
36629;SDS011;36256;42.154;23.002;2023-08-06T03:55:04;16.52;;;9.95;;
36629;SDS011;36256;42.154;23.002;2023-08-06T03:57:31;13.60;;;9.65;;
36629;SDS011;36256;42.154;23.002;2023-08-06T03:59:58;13.60;;;9.02;;
36629;SDS011;36256;42.154;23.002;2023-08-06T04:02:24;14.07;;;9.30;;
36629;SDS011;36256;42.154;23.002;2023-08-06T04:04:51;12.27;;;8.85;;
36629;SDS011;36256;42.154;23.002;2023-08-06T04:07:20;14.18;;;9.35;;
36629;SDS011;36256;42.154;23.002;2023-08-06T04:10:00;15.20;;;9.82;;
36629;SDS011;36256;42.154;23.002;2023-08-06T04:12:27;11.15;;;9.57;;
36629;SDS011;36256;42.154;23.002;2023-08-06T04:14:55;12.45;;;9.57;;
36629;SDS011;36256;42.154;23.002;2023-08-06T04:17:24;14.02;;;9.55;;
36629;SDS011;36256;42.154;23.002;2023-08-06T04:19:51;12.88;;;8.93;;
36629;SDS011;36256;42.154;23.002;2023-08-06T04:22:19;17.20;;;9.65;;
36629;SDS011;36256;42.154;23.002;2023-08-06T04:24:47;13.73;;;8.90;;
36629;SDS011;36256;42.154;23.002;2023-08-06T04:27:14;9.82;;;8.30;;
36629;SDS011;36256;42.154;23.002;2023-08-06T04:29:42;12.43;;;9.32;;
36629;SDS011;36256;42.154;23.002;2023-08-06T04:32:09;11.18;;;8.95;;
36629;SDS011;36256;42.154;23.002;2023-08-06T04:34:36;13.15;;;8.52;;
36629;SDS011;36256;42.154;23.002;2023-08-06T04:37:04;13.48;;;8.63;;
36629;SDS011;36256;42.154;23.002;2023-08-06T04:39:31;10.85;;;8.85;;
36629;SDS011;36256;42.154;23.002;2023-08-06T04:41:58;11.23;;;9.13;;
36629;SDS011;36256;42.154;23.002;2023-08-06T04:44:24;17.35;;;9.82;;
36629;SDS011;36256;42.154;23.002;2023-08-06T04:46:51;11.88;;;9.52;;
36629;SDS011;36256;42.154;23.002;2023-08-06T04:51:48;11.40;;;9.68;;
36629;SDS011;36256;42.154;23.002;2023-08-06T04:54:14;11.27;;;9.00;;
36629;SDS011;36256;42.154;23.002;2023-08-06T04:56:41;18.17;;;10.90;;
36629;SDS011;36256;42.154;23.002;2023-08-06T04:59:08;16.83;;;11.73;;
36629;SDS011;36256;42.154;23.002;2023-08-06T05:01:34;15.40;;;11.85;;
36629;SDS011;36256;42.154;23.002;2023-08-06T05:04:01;13.77;;;10.52;;
36629;SDS011;36256;42.154;23.002;2023-08-06T05:06:28;13.23;;;10.63;;
36629;SDS011;36256;42.154;23.002;2023-08-06T05:08:55;16.40;;;10.30;;
36629;SDS011;36256;42.154;23.002;2023-08-06T05:11:21;13.48;;;10.50;;
36629;SDS011;36256;42.154;23.002;2023-08-06T05:13:48;16.30;;;10.82;;
36629;SDS011;36256;42.154;23.002;2023-08-06T05:16:15;11.77;;;9.77;;
36629;SDS011;36256;42.154;23.002;2023-08-06T05:18:41;11.85;;;9.98;;
36629;SDS011;36256;42.154;23.002;2023-08-06T05:21:08;13.40;;;10.93;;
36629;SDS011;36256;42.154;23.002;2023-08-06T05:23:35;12.75;;;10.95;;
36629;SDS011;36256;42.154;23.002;2023-08-06T05:26:01;14.68;;;11.85;;
36629;SDS011;36256;42.154;23.002;2023-08-06T05:28:28;14.45;;;10.73;;
36629;SDS011;36256;42.154;23.002;2023-08-06T05:30:55;15.85;;;11.65;;
36629;SDS011;36256;42.154;23.002;2023-08-06T05:33:22;14.75;;;12.23;;
36629;SDS011;36256;42.154;23.002;2023-08-06T05:35:49;16.02;;;12.05;;
36629;SDS011;36256;42.154;23.002;2023-08-06T05:38:16;20.55;;;11.77;;
36629;SDS011;36256;42.154;23.002;2023-08-06T05:40:43;13.35;;;11.68;;
36629;SDS011;36256;42.154;23.002;2023-08-06T05:43:10;14.60;;;12.45;;
36629;SDS011;36256;42.154;23.002;2023-08-06T05:45:37;14.60;;;12.13;;
36629;SDS011;36256;42.154;23.002;2023-08-06T05:48:04;13.10;;;11.73;;
36629;SDS011;36256;42.154;23.002;2023-08-06T05:50:31;14.38;;;12.15;;
36629;SDS011;36256;42.154;23.002;2023-08-06T05:52:58;12.88;;;10.48;;
36629;SDS011;36256;42.154;23.002;2023-08-06T05:55:27;11.88;;;10.68;;
36629;SDS011;36256;42.154;23.002;2023-08-06T05:57:54;11.98;;;10.77;;
36629;SDS011;36256;42.154;23.002;2023-08-06T06:00:21;13.30;;;11.90;;
36629;SDS011;36256;42.154;23.002;2023-08-06T06:02:48;12.82;;;11.40;;
36629;SDS011;36256;42.154;23.002;2023-08-06T06:05:15;12.30;;;10.77;;
36629;SDS011;36256;42.154;23.002;2023-08-06T06:07:41;11.63;;;10.05;;
36629;SDS011;36256;42.154;23.002;2023-08-06T06:10:08;11.70;;;10.48;;
36629;SDS011;36256;42.154;23.002;2023-08-06T06:15:04;12.20;;;10.25;;
36629;SDS011;36256;42.154;23.002;2023-08-06T06:17:31;14.00;;;10.48;;
36629;SDS011;36256;42.154;23.002;2023-08-06T06:19:58;11.55;;;9.27;;
36629;SDS011;36256;42.154;23.002;2023-08-06T06:22:25;12.57;;;9.20;;
36629;SDS011;36256;42.154;23.002;2023-08-06T06:24:52;10.77;;;9.00;;
36629;SDS011;36256;42.154;23.002;2023-08-06T06:27:18;10.27;;;8.05;;
36629;SDS011;36256;42.154;23.002;2023-08-06T06:29:45;10.98;;;8.02;;
36629;SDS011;36256;42.154;23.002;2023-08-06T06:32:12;9.02;;;7.95;;
36629;SDS011;36256;42.154;23.002;2023-08-06T06:34:39;8.48;;;7.57;;
36629;SDS011;36256;42.154;23.002;2023-08-06T06:37:05;9.27;;;8.20;;
36629;SDS011;36256;42.154;23.002;2023-08-06T06:39:32;12.05;;;8.07;;
36629;SDS011;36256;42.154;23.002;2023-08-06T06:41:59;14.63;;;8.30;;
36629;SDS011;36256;42.154;23.002;2023-08-06T06:44:26;13.70;;;8.43;;
36629;SDS011;36256;42.154;23.002;2023-08-06T06:46:52;8.82;;;8.02;;
36629;SDS011;36256;42.154;23.002;2023-08-06T06:49:19;9.02;;;7.35;;
36629;SDS011;36256;42.154;23.002;2023-08-06T06:51:46;9.02;;;7.22;;
36629;SDS011;36256;42.154;23.002;2023-08-06T06:54:13;7.50;;;6.80;;
36629;SDS011;36256;42.154;23.002;2023-08-06T06:56:41;8.57;;;6.43;;
36629;SDS011;36256;42.154;23.002;2023-08-06T06:59:08;7.43;;;6.38;;
36629;SDS011;36256;42.154;23.002;2023-08-06T07:01:34;9.70;;;6.80;;
36629;SDS011;36256;42.154;23.002;2023-08-06T07:04:01;7.90;;;6.10;;
36629;SDS011;36256;42.154;23.002;2023-08-06T07:06:31;6.68;;;5.57;;
36629;SDS011;36256;42.154;23.002;2023-08-06T07:11:24;6.88;;;5.50;;
36629;SDS011;36256;42.154;23.002;2023-08-06T07:13:55;6.45;;;5.30;;
36629;SDS011;36256;42.154;23.002;2023-08-06T07:16:23;5.72;;;5.15;;
36629;SDS011;36256;42.154;23.002;2023-08-06T07:18:51;7.65;;;4.95;;
36629;SDS011;36256;42.154;23.002;2023-08-06T07:21:19;6.07;;;5.47;;
36629;SDS011;36256;42.154;23.002;2023-08-06T07:23:46;6.47;;;5.55;;
36629;SDS011;36256;42.154;23.002;2023-08-06T07:26:13;6.35;;;5.75;;
36629;SDS011;36256;42.154;23.002;2023-08-06T07:28:39;4.97;;;4.20;;
36629;SDS011;36256;42.154;23.002;2023-08-06T07:31:06;11.27;;;5.68;;
36629;SDS011;36256;42.154;23.002;2023-08-06T07:33:34;8.43;;;7.55;;
36629;SDS011;36256;42.154;23.002;2023-08-06T07:36:07;15.90;;;9.57;;
36629;SDS011;36256;42.154;23.002;2023-08-06T07:38:35;9.52;;;8.45;;
36629;SDS011;36256;42.154;23.002;2023-08-06T07:41:02;8.05;;;7.22;;
36629;SDS011;36256;42.154;23.002;2023-08-06T07:43:30;7.53;;;6.65;;
36629;SDS011;36256;42.154;23.002;2023-08-06T07:46:00;6.75;;;6.00;;
36629;SDS011;36256;42.154;23.002;2023-08-06T07:48:27;6.18;;;5.22;;
36629;SDS011;36256;42.154;23.002;2023-08-06T07:50:54;6.30;;;5.18;;
36629;SDS011;36256;42.154;23.002;2023-08-06T07:53:22;4.28;;;3.45;;
36629;SDS011;36256;42.154;23.002;2023-08-06T07:55:50;5.38;;;3.28;;
36629;SDS011;36256;42.154;23.002;2023-08-06T07:58:18;5.97;;;2.90;;
36629;SDS011;36256;42.154;23.002;2023-08-06T08:00:45;3.88;;;2.80;;
36629;SDS011;36256;42.154;23.002;2023-08-06T08:03:13;5.07;;;2.88;;
36629;SDS011;36256;42.154;23.002;2023-08-06T08:05:41;4.15;;;3.00;;
36629;SDS011;36256;42.154;23.002;2023-08-06T08:08:08;5.05;;;2.72;;
36629;SDS011;36256;42.154;23.002;2023-08-06T08:10:35;4.10;;;3.70;;
36629;SDS011;36256;42.154;23.002;2023-08-06T08:13:04;4.03;;;3.63;;
36629;SDS011;36256;42.154;23.002;2023-08-06T08:15:31;5.13;;;4.15;;
36629;SDS011;36256;42.154;23.002;2023-08-06T08:17:59;6.22;;;4.45;;
36629;SDS011;36256;42.154;23.002;2023-08-06T08:20:26;8.73;;;4.00;;
36629;SDS011;36256;42.154;23.002;2023-08-06T08:23:01;4.97;;;4.10;;
36629;SDS011;36256;42.154;23.002;2023-08-06T08:25:28;6.75;;;4.20;;
36629;SDS011;36256;42.154;23.002;2023-08-06T08:27:57;6.50;;;4.03;;
36629;SDS011;36256;42.154;23.002;2023-08-06T08:30:24;4.55;;;4.05;;
36629;SDS011;36256;42.154;23.002;2023-08-06T08:32:51;4.45;;;4.05;;
36629;SDS011;36256;42.154;23.002;2023-08-06T08:35:18;5.07;;;4.10;;
36629;SDS011;36256;42.154;23.002;2023-08-06T08:37:45;5.70;;;4.05;;
36629;SDS011;36256;42.154;23.002;2023-08-06T08:40:13;5.78;;;3.78;;
36629;SDS011;36256;42.154;23.002;2023-08-06T08:42:41;5.78;;;3.88;;
36629;SDS011;36256;42.154;23.002;2023-08-06T08:45:12;4.55;;;3.78;;
36629;SDS011;36256;42.154;23.002;2023-08-06T08:47:43;5.05;;;3.72;;
36629;SDS011;36256;42.154;23.002;2023-08-06T08:50:13;4.32;;;3.70;;
36629;SDS011;36256;42.154;23.002;2023-08-06T08:52:41;7.38;;;3.80;;
36629;SDS011;36256;42.154;23.002;2023-08-06T08:55:08;4.07;;;3.67;;
36629;SDS011;36256;42.154;23.002;2023-08-06T08:57:35;4.65;;;3.90;;
36629;SDS011;36256;42.154;23.002;2023-08-06T09:02:29;3.72;;;3.33;;
36629;SDS011;36256;42.154;23.002;2023-08-06T09:04:59;4.20;;;3.33;;
36629;SDS011;36256;42.154;23.002;2023-08-06T09:07:32;6.55;;;3.70;;
36629;SDS011;36256;42.154;23.002;2023-08-06T09:10:05;5.30;;;3.50;;
36629;SDS011;36256;42.154;23.002;2023-08-06T09:12:36;3.20;;;2.35;;
36629;SDS011;36256;42.154;23.002;2023-08-06T09:15:04;4.30;;;2.72;;
36629;SDS011;36256;42.154;23.002;2023-08-06T09:19:57;2.75;;;2.13;;
36629;SDS011;36256;42.154;23.002;2023-08-06T09:22:25;2.03;;;1.83;;
36629;SDS011;36256;42.154;23.002;2023-08-06T09:25:01;3.72;;;2.38;;
36629;SDS011;36256;42.154;23.002;2023-08-06T09:27:30;3.15;;;2.20;;
36629;SDS011;36256;42.154;23.002;2023-08-06T09:29:56;3.10;;;2.10;;
36629;SDS011;36256;42.154;23.002;2023-08-06T09:32:23;3.30;;;2.47;;
36629;SDS011;36256;42.154;23.002;2023-08-06T09:34:54;2.88;;;2.20;;
36629;SDS011;36256;42.154;23.002;2023-08-06T09:37:22;2.80;;;1.98;;
36629;SDS011;36256;42.154;23.002;2023-08-06T09:39:49;2.65;;;1.80;;
36629;SDS011;36256;42.154;23.002;2023-08-06T09:42:18;3.30;;;2.10;;
36629;SDS011;36256;42.154;23.002;2023-08-06T09:44:44;3.92;;;2.53;;
36629;SDS011;36256;42.154;23.002;2023-08-06T09:47:11;3.03;;;2.08;;
36629;SDS011;36256;42.154;23.002;2023-08-06T09:49:41;3.15;;;2.20;;
36629;SDS011;36256;42.154;23.002;2023-08-06T09:52:12;2.65;;;2.13;;
36629;SDS011;36256;42.154;23.002;2023-08-06T09:54:40;3.50;;;2.50;;
36629;SDS011;36256;42.154;23.002;2023-08-06T09:57:06;3.65;;;2.08;;
36629;SDS011;36256;42.154;23.002;2023-08-06T09:59:35;3.47;;;2.20;;
36629;SDS011;36256;42.154;23.002;2023-08-06T10:02:04;4.82;;;2.10;;
36629;SDS011;36256;42.154;23.002;2023-08-06T10:04:39;3.90;;;2.07;;
36629;SDS011;36256;42.154;23.002;2023-08-06T10:07:07;2.47;;;2.15;;
36629;SDS011;36256;42.154;23.002;2023-08-06T10:09:34;4.47;;;2.25;;
36629;SDS011;36256;42.154;23.002;2023-08-06T10:12:02;2.78;;;2.47;;
36629;SDS011;36256;42.154;23.002;2023-08-06T10:14:30;5.20;;;2.53;;
36629;SDS011;36256;42.154;23.002;2023-08-06T10:16:59;3.75;;;2.40;;
36629;SDS011;36256;42.154;23.002;2023-08-06T10:24:53;6.25;;;3.53;;
36629;SDS011;36256;42.154;23.002;2023-08-06T10:27:22;2.83;;;2.45;;
36629;SDS011;36256;42.154;23.002;2023-08-06T10:33:00;3.42;;;2.20;;
36629;SDS011;36256;42.154;23.002;2023-08-06T10:35:37;6.18;;;3.28;;
36629;SDS011;36256;42.154;23.002;2023-08-06T10:40:36;3.60;;;2.17;;
36629;SDS011;36256;42.154;23.002;2023-08-06T10:43:05;5.00;;;2.10;;
36629;SDS011;36256;42.154;23.002;2023-08-06T10:45:34;3.75;;;2.10;;
36629;SDS011;36256;42.154;23.002;2023-08-06T10:48:02;2.67;;;2.13;;
36629;SDS011;36256;42.154;23.002;2023-08-06T10:50:30;3.00;;;1.85;;
36629;SDS011;36256;42.154;23.002;2023-08-06T10:53:00;3.67;;;2.30;;
36629;SDS011;36256;42.154;23.002;2023-08-06T10:55:32;2.65;;;2.00;;
36629;SDS011;36256;42.154;23.002;2023-08-06T10:57:59;2.50;;;2.28;;
36629;SDS011;36256;42.154;23.002;2023-08-06T11:00:25;2.78;;;1.70;;
36629;SDS011;36256;42.154;23.002;2023-08-06T11:02:52;2.42;;;1.90;;
36629;SDS011;36256;42.154;23.002;2023-08-06T11:05:20;3.13;;;1.80;;
36629;SDS011;36256;42.154;23.002;2023-08-06T11:07:47;3.40;;;1.80;;
36629;SDS011;36256;42.154;23.002;2023-08-06T11:10:15;4.35;;;2.25;;
36629;SDS011;36256;42.154;23.002;2023-08-06T11:12:42;1.92;;;1.60;;
36629;SDS011;36256;42.154;23.002;2023-08-06T11:15:09;2.28;;;1.73;;
36629;SDS011;36256;42.154;23.002;2023-08-06T11:17:39;2.28;;;1.80;;
36629;SDS011;36256;42.154;23.002;2023-08-06T11:20:07;1.80;;;1.48;;
36629;SDS011;36256;42.154;23.002;2023-08-06T11:22:35;2.08;;;1.40;;
36629;SDS011;36256;42.154;23.002;2023-08-06T11:25:03;2.42;;;1.55;;
36629;SDS011;36256;42.154;23.002;2023-08-06T11:27:30;3.80;;;1.40;;
36629;SDS011;36256;42.154;23.002;2023-08-06T11:29:57;2.28;;;1.48;;
36629;SDS011;36256;42.154;23.002;2023-08-06T11:32:24;3.92;;;1.58;;
36629;SDS011;36256;42.154;23.002;2023-08-06T11:34:52;9.23;;;5.85;;
36629;SDS011;36256;42.154;23.002;2023-08-06T11:37:21;7.80;;;4.35;;
36629;SDS011;36256;42.154;23.002;2023-08-06T11:39:52;4.20;;;2.63;;
36629;SDS011;36256;42.154;23.002;2023-08-06T11:42:19;2.25;;;1.40;;
36629;SDS011;36256;42.154;23.002;2023-08-06T11:44:46;1.80;;;1.45;;
36629;SDS011;36256;42.154;23.002;2023-08-06T11:49:44;2.80;;;1.58;;
36629;SDS011;36256;42.154;23.002;2023-08-06T11:52:15;6.78;;;1.23;;
36629;SDS011;36256;42.154;23.002;2023-08-06T11:54:45;5.88;;;3.30;;
36629;SDS011;36256;42.154;23.002;2023-08-06T11:57:38;1.95;;;1.33;;
36629;SDS011;36256;42.154;23.002;2023-08-06T12:00:11;23.92;;;11.40;;
36629;SDS011;36256;42.154;23.002;2023-08-06T12:02:39;5.30;;;2.40;;
36629;SDS011;36256;42.154;23.002;2023-08-06T12:07:42;2.10;;;1.42;;
36629;SDS011;36256;42.154;23.002;2023-08-06T12:10:11;4.03;;;1.40;;
36629;SDS011;36256;42.154;23.002;2023-08-06T12:12:39;2.05;;;1.20;;
36629;SDS011;36256;42.154;23.002;2023-08-06T12:15:06;1.55;;;1.30;;
36629;SDS011;36256;42.154;23.002;2023-08-06T12:17:34;1.75;;;1.20;;
36629;SDS011;36256;42.154;23.002;2023-08-06T12:20:02;2.50;;;1.33;;
36629;SDS011;36256;42.154;23.002;2023-08-06T12:22:34;2.08;;;1.40;;
36629;SDS011;36256;42.154;23.002;2023-08-06T12:25:02;1.65;;;1.40;;
36629;SDS011;36256;42.154;23.002;2023-08-06T12:27:30;2.40;;;1.73;;
36629;SDS011;36256;42.154;23.002;2023-08-06T12:29:56;3.15;;;1.58;;
36629;SDS011;36256;42.154;23.002;2023-08-06T12:32:23;2.58;;;1.63;;
36629;SDS011;36256;42.154;23.002;2023-08-06T12:34:50;3.95;;;1.67;;
36629;SDS011;36256;42.154;23.002;2023-08-06T12:37:18;1.80;;;1.50;;
36629;SDS011;36256;42.154;23.002;2023-08-06T12:39:46;2.92;;;1.92;;
36629;SDS011;36256;42.154;23.002;2023-08-06T12:42:13;2.22;;;1.55;;
36629;SDS011;36256;42.154;23.002;2023-08-06T12:44:40;3.67;;;1.67;;
36629;SDS011;36256;42.154;23.002;2023-08-06T12:47:07;3.00;;;1.70;;
36629;SDS011;36256;42.154;23.002;2023-08-06T12:49:34;4.80;;;1.80;;
36629;SDS011;36256;42.154;23.002;2023-08-06T12:52:01;2.58;;;1.80;;
36629;SDS011;36256;42.154;23.002;2023-08-06T12:54:28;4.70;;;1.67;;
36629;SDS011;36256;42.154;23.002;2023-08-06T12:56:55;3.25;;;1.80;;
36629;SDS011;36256;42.154;23.002;2023-08-06T12:59:22;2.53;;;1.52;;
36629;SDS011;36256;42.154;23.002;2023-08-06T13:04:16;1.52;;;1.42;;
36629;SDS011;36256;42.154;23.002;2023-08-06T13:06:48;3.65;;;1.70;;
36629;SDS011;36256;42.154;23.002;2023-08-06T13:09:15;1.58;;;1.40;;
36629;SDS011;36256;42.154;23.002;2023-08-06T13:11:42;2.35;;;1.40;;
36629;SDS011;36256;42.154;23.002;2023-08-06T13:14:13;3.20;;;1.67;;
36629;SDS011;36256;42.154;23.002;2023-08-06T13:16:41;3.15;;;1.60;;
36629;SDS011;36256;42.154;23.002;2023-08-06T13:19:09;2.47;;;1.50;;
36629;SDS011;36256;42.154;23.002;2023-08-06T13:24:26;2.72;;;1.60;;
36629;SDS011;36256;42.154;23.002;2023-08-06T13:26:53;3.05;;;1.50;;
36629;SDS011;36256;42.154;23.002;2023-08-06T13:29:21;1.58;;;1.42;;
36629;SDS011;36256;42.154;23.002;2023-08-06T13:31:48;3.33;;;1.70;;
36629;SDS011;36256;42.154;23.002;2023-08-06T13:34:15;117.75;;;6.55;;
36629;SDS011;36256;42.154;23.002;2023-08-06T13:36:43;5.38;;;1.65;;
36629;SDS011;36256;42.154;23.002;2023-08-06T13:39:10;1.80;;;1.40;;
36629;SDS011;36256;42.154;23.002;2023-08-06T13:41:38;3.50;;;1.70;;
36629;SDS011;36256;42.154;23.002;2023-08-06T13:44:05;1.67;;;1.40;;
36629;SDS011;36256;42.154;23.002;2023-08-06T13:46:33;1.60;;;1.38;;
36629;SDS011;36256;42.154;23.002;2023-08-06T13:48:59;1.58;;;1.48;;
36629;SDS011;36256;42.154;23.002;2023-08-06T13:51:26;3.08;;;1.40;;
36629;SDS011;36256;42.154;23.002;2023-08-06T13:53:53;2.60;;;1.60;;
36629;SDS011;36256;42.154;23.002;2023-08-06T13:56:20;3.72;;;1.60;;
36629;SDS011;36256;42.154;23.002;2023-08-06T13:58:47;2.97;;;1.60;;
36629;SDS011;36256;42.154;23.002;2023-08-06T14:01:14;1.98;;;1.23;;
36629;SDS011;36256;42.154;23.002;2023-08-06T14:03:45;2.38;;;1.30;;
36629;SDS011;36256;42.154;23.002;2023-08-06T14:06:12;2.60;;;1.55;;
36629;SDS011;36256;42.154;23.002;2023-08-06T14:08:39;1.27;;;1.17;;
36629;SDS011;36256;42.154;23.002;2023-08-06T14:11:05;8.00;;;1.63;;
36629;SDS011;36256;42.154;23.002;2023-08-06T14:13:32;1.95;;;1.20;;
36629;SDS011;36256;42.154;23.002;2023-08-06T14:15:59;1.50;;;1.40;;
36629;SDS011;36256;42.154;23.002;2023-08-06T14:18:26;1.30;;;1.00;;
36629;SDS011;36256;42.154;23.002;2023-08-06T14:20:53;1.77;;;0.98;;
36629;SDS011;36256;42.154;23.002;2023-08-06T14:23:20;2.67;;;1.10;;
36629;SDS011;36256;42.154;23.002;2023-08-06T14:25:47;1.85;;;1.00;;
36629;SDS011;36256;42.154;23.002;2023-08-06T14:28:14;2.03;;;1.13;;
36629;SDS011;36256;42.154;23.002;2023-08-06T14:30:40;1.10;;;0.90;;
36629;SDS011;36256;42.154;23.002;2023-08-06T14:33:07;1.23;;;0.90;;
36629;SDS011;36256;42.154;23.002;2023-08-06T14:35:51;1.20;;;0.85;;
36629;SDS011;36256;42.154;23.002;2023-08-06T14:38:18;3.42;;;0.90;;
36629;SDS011;36256;42.154;23.002;2023-08-06T14:40:45;1.23;;;0.93;;
36629;SDS011;36256;42.154;23.002;2023-08-06T14:43:12;2.33;;;0.90;;
36629;SDS011;36256;42.154;23.002;2023-08-06T14:45:41;3.17;;;1.10;;
36629;SDS011;36256;42.154;23.002;2023-08-06T14:48:08;1.00;;;0.80;;
36629;SDS011;36256;42.154;23.002;2023-08-06T14:50:34;0.88;;;0.80;;
36629;SDS011;36256;42.154;23.002;2023-08-06T14:53:01;1.00;;;0.90;;
36629;SDS011;36256;42.154;23.002;2023-08-06T14:55:31;1.20;;;0.90;;
36629;SDS011;36256;42.154;23.002;2023-08-06T14:58:00;1.90;;;0.95;;
36629;SDS011;36256;42.154;23.002;2023-08-06T15:00:27;2.47;;;1.00;;
36629;SDS011;36256;42.154;23.002;2023-08-06T15:02:54;2.28;;;0.90;;
36629;SDS011;36256;42.154;23.002;2023-08-06T15:05:21;1.10;;;0.80;;
36629;SDS011;36256;42.154;23.002;2023-08-06T15:07:48;1.42;;;0.90;;
36629;SDS011;36256;42.154;23.002;2023-08-06T15:10:15;2.58;;;1.25;;
36629;SDS011;36256;42.154;23.002;2023-08-06T15:12:45;1.48;;;1.20;;
36629;SDS011;36256;42.154;23.002;2023-08-06T15:15:11;1.17;;;0.88;;
36629;SDS011;36256;42.154;23.002;2023-08-06T15:20:05;3.60;;;0.93;;
36629;SDS011;36256;42.154;23.002;2023-08-06T15:22:33;4.63;;;0.80;;
36629;SDS011;36256;42.154;23.002;2023-08-06T15:25:00;1.42;;;0.90;;